Time;durP1;ratioP1;P1;durP2;ratioP2;P2;SDS_P1;SDS_P2;PMS_P1;PMS_P2;Temp;Humidity;BMP_temperature;BMP_pressure;BME280_temperature;BME280_humidity;BME280_pressure;Samples;Min_cycle;Max_cycle;Signal;HPM_P1;HPM_P2
2023/03/21 00:01:49;;;;;;;23.00;11.30;;;;;;;9.12;100.00;101641.38;4910451;29;20110;-63
2023/03/21 00:04:15;;;;;;;21.85;11.07;;;;;;;9.08;100.00;101632.56;4906517;29;20106;-63
2023/03/21 00:06:40;;;;;;;24.50;11.73;;;;;;;9.06;100.00;101636.78;4908530;29;20036;-64
2023/03/21 00:09:05;;;;;;;21.88;11.55;;;;;;;9.04;100.00;101630.66;4908319;29;20535;-63
2023/03/21 00:11:30;;;;;;;23.63;12.05;;;;;;;8.99;100.00;101625.25;4909799;29;20043;-63
2023/03/21 00:13:57;;;;;;;23.90;12.02;;;;;;;8.97;100.00;101629.50;4907260;29;20039;-64
2023/03/21 00:16:22;;;;;;;25.50;12.05;;;;;;;8.95;100.00;101625.03;4889596;29;20075;-63
2023/03/21 00:18:51;;;;;;;25.15;12.00;;;;;;;8.95;100.00;101617.25;4907478;29;20115;-63
2023/03/21 00:21:19;;;;;;;22.92;12.25;;;;;;;8.94;100.00;101618.09;4891265;29;20083;-63
2023/03/21 00:23:46;;;;;;;23.17;11.60;;;;;;;8.92;100.00;101614.50;4906621;29;20036;-63
2023/03/21 00:26:12;;;;;;;23.48;12.15;;;;;;;8.92;100.00;101611.91;4907937;29;20039;-63
2023/03/21 00:28:41;;;;;;;23.98;11.70;;;;;;;8.93;100.00;101613.69;4909079;29;20028;-63
2023/03/21 00:31:08;;;;;;;22.10;11.32;;;;;;;8.93;100.00;101608.50;4909455;29;20164;-63
2023/03/21 00:33:34;;;;;;;23.88;11.80;;;;;;;8.95;100.00;101607.75;4907577;29;20123;-63
2023/03/21 00:36:00;;;;;;;20.98;10.77;;;;;;;8.96;100.00;101608.63;4908540;29;20515;-63
2023/03/21 00:38:26;;;;;;;23.25;11.80;;;;;;;8.97;100.00;101600.03;4889100;29;20028;-63
2023/03/21 00:40:51;;;;;;;24.05;11.98;;;;;;;8.98;100.00;101594.88;4909025;29;20146;-64
2023/03/21 00:43:18;;;;;;;24.33;11.98;;;;;;;8.98;100.00;101597.47;4907549;29;20047;-63
2023/03/21 00:46:03;;;;;;;23.60;11.50;;;;;;;9.00;100.00;101590.63;4909459;29;20044;-63
2023/03/21 00:48:29;;;;;;;23.20;11.32;;;;;;;9.00;100.00;101590.63;4910321;29;20539;-70
2023/03/21 00:50:58;;;;;;;21.55;10.85;;;;;;;9.02;100.00;101582.88;4911666;29;20222;-70
2023/03/21 00:53:23;;;;;;;24.50;11.40;;;;;;;9.03;100.00;101582.94;4892419;29;20031;-70
2023/03/21 00:55:49;;;;;;;24.35;11.15;;;;;;;9.04;100.00;101581.25;4911927;29;20043;-70
2023/03/21 00:58:15;;;;;;;27.13;11.10;;;;;;;9.04;100.00;101571.75;4912038;29;20087;-69
2023/03/21 01:00:40;;;;;;;23.90;10.32;;;;;;;9.05;100.00;101580.41;4912922;29;20028;-70
2023/03/21 01:03:10;;;;;;;27.30;10.75;;;;;;;9.07;100.00;101573.59;4910516;29;20500;-69
2023/03/21 01:08:23;;;;;;;21.52;10.05;;;;;;;9.07;100.00;101560.59;4909340;29;20103;-70
2023/03/21 01:10:50;;;;;;;22.58;10.70;;;;;;;9.07;100.00;101554.47;4912329;29;20039;-70
2023/03/21 01:13:18;;;;;;;18.58;9.45;;;;;;;9.08;100.00;101549.38;4907363;29;20035;-70
2023/03/21 01:15:49;;;;;;;20.00;9.55;;;;;;;9.09;100.00;101553.72;4910558;29;20036;-70
2023/03/21 01:18:17;;;;;;;21.20;10.63;;;;;;;9.10;100.00;101547.72;4911078;29;20032;-70
2023/03/21 01:20:43;;;;;;;23.60;9.82;;;;;;;9.12;100.00;101542.56;4911211;29;20028;-70
2023/03/21 01:23:10;;;;;;;24.27;9.63;;;;;;;9.11;99.92;101541.69;4910414;29;20123;-70
2023/03/21 01:25:35;;;;;;;22.08;10.02;;;;;;;9.11;99.80;101538.19;4912097;29;20216;-70
2023/03/21 01:28:01;;;;;;;19.67;9.38;;;;;;;9.13;99.84;101540.03;4911666;29;20253;-69
2023/03/21 01:30:26;;;;;;;21.27;9.55;;;;;;;9.15;99.41;101538.41;4910938;29;20028;-69
2023/03/21 01:32:52;;;;;;;21.13;9.57;;;;;;;9.15;99.76;101538.41;4911687;29;20020;-70
2023/03/21 01:35:17;;;;;;;21.45;9.98;;;;;;;9.13;99.17;101534.84;4912643;29;20119;-70
2023/03/21 01:37:42;;;;;;;21.15;9.40;;;;;;;9.14;99.11;101536.63;4912936;29;20395;-63
2023/03/21 01:40:15;;;;;;;21.23;8.93;;;;;;;9.13;98.82;101524.44;4911033;29;20039;-63
2023/03/21 01:42:40;;;;;;;19.02;8.90;;;;;;;9.14;99.08;101521.00;4912558;29;20044;-63
2023/03/21 01:45:45;;;;;;;23.92;8.95;;;;;;;9.14;98.89;101527.91;4912430;29;20253;-63
2023/03/21 01:48:10;;;;;;;21.63;8.68;;;;;;;9.12;98.63;101526.97;4910303;29;20040;-63
2023/03/21 01:50:36;;;;;;;21.73;9.05;;;;;;;9.10;98.53;101515.63;4911284;29;20036;-63
2023/03/21 01:53:03;;;;;;;20.70;8.93;;;;;;;9.07;98.74;101519.00;4911899;29;20032;-63
2023/03/21 01:55:29;;;;;;;17.48;8.80;;;;;;;9.06;98.87;101519.81;4912480;29;20558;-63
2023/03/21 01:57:56;;;;;;;21.08;8.93;;;;;;;9.04;98.74;101517.16;4912159;29;20028;-63
2023/03/21 02:00:25;;;;;;;19.00;9.18;;;;;;;9.04;98.94;101516.28;4911621;29;20059;-63
2023/03/21 02:02:54;;;;;;;18.55;9.13;;;;;;;9.03;98.68;101515.38;4911769;29;20028;-64
2023/03/21 02:05:36;;;;;;;22.08;9.60;;;;;;;9.04;99.13;101509.34;4910263;29;20354;-63
2023/03/21 02:08:01;;;;;;;20.05;8.93;;;;;;;9.02;98.69;101505.81;4912039;29;20127;-63
2023/03/21 02:10:28;;;;;;;20.23;8.90;;;;;;;9.00;98.74;101504.84;4909608;29;20158;-63
2023/03/21 02:12:55;;;;;;;18.15;9.00;;;;;;;9.01;98.96;101503.16;4909841;29;20039;-63
2023/03/21 02:15:25;;;;;;;18.77;9.40;;;;;;;9.00;99.04;101498.78;4908773;29;20032;-63
2023/03/21 02:18:01;;;;;;;19.35;8.45;;;;;;;9.00;99.28;101496.16;4909603;29;20035;-64
2023/03/21 02:20:51;;;;;;;18.88;8.90;;;;;;;8.99;99.01;101492.69;4909854;29;20487;-63
2023/03/21 02:24:03;;;;;;;18.40;8.60;;;;;;;8.99;99.11;101484.00;4910494;29;20024;-63
2023/03/21 02:26:37;;;;;;;19.23;8.50;;;;;;;8.96;99.15;101482.16;4911344;29;20055;-63
2023/03/21 02:29:26;;;;;;;20.38;8.18;;;;;;;8.92;99.12;101476.78;4911801;29;20111;-64
2023/03/21 02:32:27;;;;;;;21.00;8.75;;;;;;;8.91;98.99;101472.38;4909996;29;20040;-63
2023/03/21 02:35:37;;;;;;;17.52;8.63;;;;;;;8.92;99.10;101471.56;4908634;29;20080;-64
2023/03/21 02:38:13;;;;;;;17.75;8.73;;;;;;;8.91;99.08;101470.69;4909817;29;20110;-63
2023/03/21 02:40:47;;;;;;;19.98;8.52;;;;;;;8.92;99.04;101472.47;4909188;29;20054;-63
2023/03/21 02:43:19;;;;;;;22.98;8.57;;;;;;;8.92;98.88;101476.78;4910028;29;20036;-64
2023/03/21 02:45:50;;;;;;;17.85;8.70;;;;;;;8.90;98.87;101471.50;4909572;29;20052;-64
2023/03/21 02:48:25;;;;;;;18.38;9.15;;;;;;;8.90;98.90;101465.44;4909950;29;20115;-63
2023/03/21 02:50:53;;;;;;;18.00;8.30;;;;;;;8.90;98.89;101466.31;4908521;29;20035;-64
2023/03/21 02:53:24;;;;;;;17.50;8.75;;;;;;;8.90;98.70;101463.72;4910036;29;20075;-63
2023/03/21 02:55:51;;;;;;;17.40;8.50;;;;;;;8.88;98.93;101465.38;4909367;29;20120;-63
2023/03/21 02:58:21;;;;;;;20.25;8.60;;;;;;;8.90;98.78;101462.84;4908885;29;20012;-63
2023/03/21 03:00:48;;;;;;;20.75;9.70;;;;;;;8.90;99.03;101455.91;4909355;29;20117;-64
2023/03/21 03:03:14;;;;;;;22.92;9.13;;;;;;;8.88;98.84;101458.47;4909612;29;20031;-63
2023/03/21 03:05:44;;;;;;;20.02;9.30;;;;;;;8.90;98.78;101458.53;4891647;29;20064;-63
2023/03/21 03:08:25;;;;;;;21.08;8.68;;;;;;;8.90;98.88;101452.44;4908638;29;20040;-63
2023/03/21 03:11:11;;;;;;;17.25;8.50;;;;;;;8.90;99.08;101452.44;4908202;29;20111;-63
2023/03/21 03:13:39;;;;;;;17.08;8.35;;;;;;;8.88;99.36;101449.78;4909337;29;20131;-63
2023/03/21 03:16:26;;;;;;;17.77;7.90;;;;;;;8.87;99.46;101448.00;4909683;29;20538;-63
2023/03/21 03:18:55;;;;;;;18.27;9.27;;;;;;;8.83;99.86;101441.78;4908344;29;20479;-63
2023/03/21 03:21:38;;;;;;;18.05;9.13;;;;;;;8.81;99.86;101448.63;4907950;29;20039;-63
2023/03/21 03:24:30;;;;;;;20.73;9.10;;;;;;;8.80;100.00;101438.19;4908815;29;20070;-63
2023/03/21 03:27:08;;;;;;;18.90;9.35;;;;;;;8.78;100.00;101442.44;4908181;29;20112;-63
2023/03/21 03:29:37;;;;;;;20.80;9.07;;;;;;;8.77;99.93;101436.34;4909318;29;20044;-63
2023/03/21 03:32:09;;;;;;;20.08;9.27;;;;;;;8.75;100.00;101440.59;4907309;29;20475;-63
2023/03/21 03:34:39;;;;;;;22.55;9.30;;;;;;;8.72;100.00;101437.88;4891756;29;20059;-63
2023/03/21 03:37:06;;;;;;;;;;;;;;;8.76;99.58;101436.28;4909368;29;20050;-63
2023/03/21 03:39:40;;;;;;;18.58;8.98;;;;;;;8.73;100.00;101437.03;4908728;29;19926;-63
2023/03/21 03:42:22;;;;;;;22.73;9.52;;;;;;;8.72;100.00;101439.56;4909283;29;20032;-63
2023/03/21 03:44:47;;;;;;;17.92;8.57;;;;;;;8.69;100.00;101432.56;4909882;29;20087;-64
2023/03/21 03:47:23;;;;;;;21.40;9.90;;;;;;;8.68;100.00;101416.06;4908438;29;20648;-69
2023/03/21 03:50:07;;;;;;;19.10;9.45;;;;;;;8.68;100.00;101423.00;4908454;29;20044;-70
2023/03/21 03:52:41;;;;;;;18.75;9.18;;;;;;;8.67;100.00;101424.69;4908387;29;20040;-70
2023/03/21 03:55:10;;;;;;;22.40;9.05;;;;;;;8.67;100.00;101422.09;4908102;29;20111;-70
2023/03/21 03:57:35;;;;;;;19.33;8.85;;;;;;;8.67;100.00;101416.00;4909264;29;20091;-70
2023/03/21 04:00:01;;;;;;;20.23;8.95;;;;;;;8.66;100.00;101415.13;4908747;29;20636;-70
2023/03/21 04:02:26;;;;;;;23.67;9.30;;;;;;;8.66;100.00;101416.81;4890837;29;20498;-70
2023/03/21 04:04:52;;;;;;;21.40;9.73;;;;;;;8.66;100.00;101419.44;4909236;29;20035;-70
2023/03/21 04:07:21;;;;;;;22.17;9.73;;;;;;;8.66;100.00;101412.53;4908748;29;20507;-69
2023/03/21 04:09:46;;;;;;;23.75;10.60;;;;;;;8.66;100.00;101412.53;4908983;29;20028;-70
2023/03/21 04:12:12;;;;;;;21.48;10.10;;;;;;;8.65;100.00;101415.94;4907959;29;20031;-70
2023/03/21 04:14:38;;;;;;;20.48;9.85;;;;;;;8.63;100.00;101412.41;4906244;29;20024;-69
2023/03/21 04:17:03;;;;;;;20.30;9.80;;;;;;;8.63;100.00;101411.50;4907064;29;20035;-70
2023/03/21 04:19:28;;;;;;;23.73;10.20;;;;;;;8.63;100.00;101411.50;4907163;29;20032;-70
2023/03/21 04:21:54;;;;;;;22.60;10.27;;;;;;;8.62;100.00;101404.56;4905553;29;20035;-70
2023/03/21 04:24:19;;;;;;;21.73;10.20;;;;;;;8.63;100.00;101406.31;4889449;29;20032;-69
2023/03/21 04:26:45;;;;;;;21.92;9.88;;;;;;;8.63;100.00;101402.03;4906795;29;20039;-63
2023/03/21 04:29:10;;;;;;;21.85;10.15;;;;;;;8.64;100.00;101408.09;4908735;29;20025;-63
2023/03/21 04:31:35;;;;;;;19.83;9.65;;;;;;;8.62;100.00;101405.44;4907754;29;20396;-63
2023/03/21 04:34:04;;;;;;;20.60;9.57;;;;;;;8.62;100.00;101399.38;4908999;29;20032;-63
2023/03/21 04:36:37;;;;;;;25.83;10.38;;;;;;;8.63;100.00;101401.13;4906682;29;20115;-63
2023/03/21 04:39:04;;;;;;;23.45;10.38;;;;;;;8.62;100.00;101391.59;4906757;29;20031;-64
2023/03/21 04:41:30;;;;;;;20.67;10.13;;;;;;;8.62;100.00;101388.97;4907529;29;20052;-63
2023/03/21 04:43:55;;;;;;;23.60;10.35;;;;;;;8.61;100.00;101393.28;4909104;29;20031;-63
2023/03/21 04:46:21;;;;;;;25.27;10.45;;;;;;;8.63;100.00;101385.53;4908123;29;20040;-63
2023/03/21 04:48:47;;;;;;;22.85;9.98;;;;;;;8.63;100.00;101382.94;4908572;29;20036;-63
2023/03/21 04:51:14;;;;;;;24.30;11.00;;;;;;;8.64;100.00;101382.13;4906411;29;20035;-64
2023/03/21 04:53:42;;;;;;;22.17;9.90;;;;;;;8.65;100.00;101384.78;4908084;29;20095;-63
2023/03/21 04:56:08;;;;;;;22.95;9.93;;;;;;;8.65;100.00;101381.31;4891334;29;20036;-63
2023/03/21 04:58:33;;;;;;;21.42;10.77;;;;;;;8.65;99.71;101376.13;4906706;29;20031;-63
2023/03/21 05:01:01;;;;;;;23.67;10.32;;;;;;;8.66;99.74;101372.66;4907835;29;20058;-63
2023/03/21 05:03:28;;;;;;;24.05;10.75;;;;;;;8.66;100.00;101372.66;4908765;29;20131;-63
2023/03/21 05:05:53;;;;;;;19.77;9.57;;;;;;;8.65;99.67;101377.00;4906564;29;20032;-63
2023/03/21 05:08:19;;;;;;;22.27;9.95;;;;;;;8.67;99.54;101369.25;4906869;29;20030;-63
2023/03/21 05:10:44;;;;;;;21.95;10.00;;;;;;;8.68;99.52;101369.31;4907900;29;20038;-63
2023/03/21 05:13:10;;;;;;;21.45;10.27;;;;;;;8.69;99.36;101365.03;4907757;29;20024;-63
2023/03/21 05:15:35;;;;;;;23.77;11.13;;;;;;;8.69;99.40;101370.22;4908462;29;20483;-63
2023/03/21 05:18:10;;;;;;;20.90;10.18;;;;;;;8.70;99.37;101367.69;4909518;29;20028;-63
2023/03/21 05:20:36;;;;;;;21.60;9.43;;;;;;;8.72;98.98;101372.94;4906236;29;20091;-63
2023/03/21 05:23:02;;;;;;;25.35;10.23;;;;;;;8.71;99.00;101358.16;4907021;29;20024;-63
2023/03/21 05:25:34;;;;;;;25.33;10.57;;;;;;;8.72;98.93;101365.13;4908177;29;20058;-63
2023/03/21 05:28:00;;;;;;;25.83;11.40;;;;;;;8.71;98.57;101363.34;4908591;29;20032;-63
2023/03/21 05:30:27;;;;;;;19.95;9.45;;;;;;;8.74;98.83;101367.78;4906824;29;20032;-63
2023/03/21 05:32:52;;;;;;;20.77;9.85;;;;;;;8.75;98.61;101360.06;4908605;29;20697;-63
2023/03/21 05:35:17;;;;;;;21.13;9.45;;;;;;;8.76;98.35;101368.72;4909826;29;20127;-63
2023/03/21 05:37:43;;;;;;;22.65;9.23;;;;;;;8.76;98.49;101366.13;4912867;29;20071;-70
2023/03/21 05:40:09;;;;;;;23.52;9.98;;;;;;;8.75;98.63;101362.66;4911595;29;20360;-69
2023/03/21 05:42:34;;;;;;;21.80;10.18;;;;;;;8.74;98.34;101363.47;4893548;29;20024;-69
2023/03/21 05:44:59;;;;;;;21.98;9.48;;;;;;;8.77;98.44;101365.31;4909744;29;20078;-69
2023/03/21 05:47:35;;;;;;;18.88;9.50;;;;;;;8.74;98.54;101360.88;4926147;23;20064;-94
2023/03/21 05:50:01;;;;;;;19.60;8.35;;;;;;;8.77;98.21;101367.91;4895653;29;20032;-93
2023/03/21 05:52:29;;;;;;;19.02;9.80;;;;;;;8.76;98.38;101360.94;4894833;29;20039;-93
2023/03/21 05:54:54;;;;;;;18.33;9.43;;;;;;;8.75;98.27;101360.06;4895738;29;20075;-94
2023/03/21 05:57:29;;;;;;;19.55;9.50;;;;;;;8.77;98.43;101358.41;4894856;29;20032;-96
2023/03/21 05:59:59;;;;;;;19.95;9.30;;;;;;;8.77;98.50;101363.59;4896324;29;20060;-95
2023/03/21 06:02:24;;;;;;;18.80;9.43;;;;;;;8.76;98.17;101361.84;4895232;29;20055;-93
2023/03/21 06:04:59;;;;;;;20.63;9.40;;;;;;;8.76;98.20;101359.25;4895707;29;20032;-93
2023/03/21 06:07:24;;;;;;;23.13;9.30;;;;;;;8.78;98.49;101354.97;4891161;29;20035;-93
2023/03/21 06:09:50;;;;;;;18.88;9.48;;;;;;;8.79;98.42;101358.44;4894147;29;20135;-92
2023/03/21 06:12:26;;;;;;;19.38;8.38;;;;;;;8.79;98.70;101354.16;4896370;29;20028;-94
2023/03/21 06:14:51;;;;;;;17.75;8.57;;;;;;;8.81;98.53;101359.41;4894785;29;20130;-94
2023/03/21 06:17:17;;;;;;;24.67;9.27;;;;;;;8.80;98.41;101361.09;4895373;29;20019;-96
2023/03/21 06:19:46;;;;;;;21.38;8.50;;;;;;;8.82;98.10;101364.66;4895465;29;20122;-96
2023/03/21 06:22:11;;;;;;;21.47;8.70;;;;;;;8.85;98.33;101364.78;4895860;29;20068;-96
2023/03/21 06:24:37;;;;;;;18.13;7.68;;;;;;;8.88;98.04;101362.31;4898290;29;20044;-96
2023/03/21 06:27:02;;;;;;;16.48;7.65;;;;;;;8.92;97.56;101363.31;4897692;29;20028;-96
2023/03/21 06:29:31;;;;;;;17.30;7.15;;;;;;;8.95;97.64;101373.84;4896734;29;20462;-96
2023/03/21 06:32:00;;;;;;;20.80;8.35;;;;;;;8.98;97.30;101370.44;4896805;29;20032;-96
2023/03/21 06:34:28;;;;;;;21.08;7.97;;;;;;;9.00;97.19;101374.00;4897119;29;20489;-96
2023/03/21 06:36:54;;;;;;;19.27;8.23;;;;;;;9.02;97.32;101378.44;4897095;29;20486;-96
2023/03/21 06:39:23;;;;;;;19.35;7.68;;;;;;;9.04;97.55;101370.69;4896325;29;20505;-96
2023/03/21 06:41:49;;;;;;;18.33;7.55;;;;;;;9.07;97.56;101376.00;4897617;29;20043;-96
2023/03/21 06:44:17;;;;;;;16.50;7.38;;;;;;;9.08;97.89;101370.00;4896593;29;20024;-96
2023/03/21 06:46:57;;;;;;;20.35;7.88;;;;;;;9.10;97.97;101376.13;4895938;29;20309;-96
2023/03/21 06:49:35;;;;;;;18.52;6.97;;;;;;;9.12;98.36;101373.59;4895866;29;20038;-96
2023/03/21 06:52:00;;;;;;;17.77;7.20;;;;;;;9.13;98.51;101373.63;4896954;29;20410;-96
2023/03/21 06:54:26;;;;;;;17.15;7.72;;;;;;;9.13;99.02;101373.63;4913694;29;20031;-95
2023/03/21 06:56:53;;;;;;;18.30;7.30;;;;;;;9.14;98.91;101377.13;4915880;29;20662;-94
2023/03/21 06:59:18;;;;;;;17.40;7.20;;;;;;;9.14;99.43;101375.41;4916527;29;20036;-96
2023/03/21 07:01:43;;;;;;;18.63;7.40;;;;;;;9.12;99.93;101371.84;4907342;29;20032;-96
2023/03/21 07:04:14;;;;;;;16.98;7.45;;;;;;;9.12;100.00;101378.78;4894538;29;20446;-96
2023/03/21 07:06:43;;;;;;;20.05;7.70;;;;;;;9.12;100.00;101382.25;4898145;29;21095;-96
2023/03/21 07:09:08;;;;;;;20.33;7.82;;;;;;;9.13;100.00;101385.75;4896588;29;20043;-96
2023/03/21 07:11:40;;;;;;;17.48;8.00;;;;;;;9.12;100.00;101383.97;4895919;29;20028;-96
2023/03/21 07:14:05;;;;;;;18.23;7.47;;;;;;;9.10;100.00;101389.13;4895572;29;20051;-96
2023/03/21 07:16:41;;;;;;;18.92;7.72;;;;;;;9.10;100.00;101381.31;4894899;29;20066;-96
2023/03/21 07:19:07;;;;;;;15.95;7.18;;;;;;;9.10;100.00;101390.84;4894712;29;20067;-96
2023/03/21 07:21:32;;;;;;;18.30;7.60;;;;;;;9.10;100.00;101390.84;4893880;29;20070;-96
2023/03/21 07:23:57;;;;;;;16.38;7.63;;;;;;;9.11;100.00;101384.81;4897033;29;20043;-96
2023/03/21 07:26:26;;;;;;;19.48;8.43;;;;;;;9.13;100.00;101393.56;4895395;29;20031;-96
2023/03/21 07:28:52;;;;;;;17.38;8.02;;;;;;;9.13;100.00;101390.97;4881600;29;20036;-96
2023/03/21 07:31:24;;;;;;;20.02;8.23;;;;;;;9.15;100.00;101398.00;4895900;29;20020;-96
2023/03/21 07:33:52;;;;;;;19.77;9.05;;;;;;;9.15;100.00;101399.69;4895675;29;20486;-96
2023/03/21 07:36:35;;;;;;;22.63;8.93;;;;;;;9.17;100.00;101400.66;4896487;29;20078;-95
2023/03/21 07:39:01;;;;;;;19.20;8.57;;;;;;;9.17;100.00;101403.25;4894237;29;20060;-96
2023/03/21 07:41:26;;;;;;;22.00;9.50;;;;;;;9.16;100.00;101397.16;4894234;29;20070;-95
2023/03/21 07:43:54;;;;;;;21.05;9.25;;;;;;;9.15;100.00;101386.69;4895335;29;20020;-95
2023/03/21 07:46:20;;;;;;;23.57;10.00;;;;;;;9.15;100.00;101386.69;4893492;29;20028;-95
2023/03/21 07:48:54;;;;;;;24.20;9.10;;;;;;;9.11;100.00;101387.41;4893214;29;20107;-95
2023/03/21 07:51:25;;;;;;;23.25;9.63;;;;;;;9.10;100.00;101380.44;4893170;29;20028;-94
2023/03/21 07:53:51;;;;;;;22.23;9.55;;;;;;;9.10;100.00;101386.53;4910128;29;20497;-95
2023/03/21 07:56:20;;;;;;;22.48;9.70;;;;;;;9.08;100.00;101380.41;4894575;29;20118;-94
2023/03/21 07:58:53;;;;;;;;;;;;;;;9.11;100.00;101374.41;4895164;29;20047;-95
2023/03/21 08:01:22;;;;;;;20.77;9.68;;;;;;;9.08;100.00;101370.00;4904829;29;20380;-95
2023/03/21 08:04:01;;;;;;;23.40;10.30;;;;;;;9.05;100.00;101373.34;4903595;29;20062;-95
2023/03/21 08:06:27;;;;;;;24.33;10.52;;;;;;;9.06;100.00;101366.44;4891270;29;20055;-96
2023/03/21 08:08:52;;;;;;;22.98;10.27;;;;;;;9.05;100.00;101365.56;4899714;29;20036;-96
2023/03/21 08:11:24;;;;;;;22.73;10.38;;;;;;;9.07;100.00;101352.63;4898744;29;20020;-96
2023/03/21 08:13:50;;;;;;;25.42;11.18;;;;;;;9.09;100.00;101366.53;4916327;29;20032;-96
2023/03/21 08:16:16;;;;;;;25.52;10.88;;;;;;;9.10;100.00;101344.94;4903450;29;20024;-96
2023/03/21 08:18:42;;;;;;;24.40;11.45;;;;;;;9.11;100.00;101338.00;4904054;29;20024;-96
2023/03/21 08:21:08;;;;;;;26.13;11.30;;;;;;;9.12;100.00;101337.19;4904950;29;20042;-96
2023/03/21 08:23:34;;;;;;;23.70;11.60;;;;;;;9.14;100.00;101335.50;4904368;29;20024;-96
2023/03/21 08:26:02;;;;;;;27.45;11.20;;;;;;;9.16;100.00;101332.16;4907171;29;20032;-96
2023/03/21 08:28:28;;;;;;;21.23;10.63;;;;;;;9.18;100.00;101329.59;4902391;29;20435;-96
2023/03/21 08:30:53;;;;;;;24.08;11.32;;;;;;;9.18;100.00;101327.00;4902552;29;20071;-96
2023/03/21 08:33:26;;;;;;;24.60;10.48;;;;;;;9.18;100.00;101317.50;4963471;23;21067;-96
2023/03/21 08:35:51;;;;;;;23.85;11.40;;;;;;;9.20;100.00;101322.78;4906859;29;20099;-96
2023/03/21 08:38:20;;;;;;;26.33;11.20;;;;;;;9.18;100.00;101321.81;4920187;29;20028;-96
2023/03/21 08:40:48;;;;;;;24.53;9.97;;;;;;;9.18;100.00;101322.72;4935851;29;20008;-96
2023/03/21 08:43:17;;;;;;;25.50;10.77;;;;;;;9.18;100.00;101324.41;4921243;29;20300;-96
2023/03/21 08:45:45;;;;;;;23.63;9.40;;;;;;;9.20;100.00;101330.56;4913380;29;20091;-95
2023/03/21 08:48:14;;;;;;;23.10;9.32;;;;;;;9.21;100.00;101333.22;4911193;29;20040;-96
2023/03/21 08:50:47;;;;;;;21.63;9.70;;;;;;;9.23;100.00;101328.06;4912711;29;20490;-96
2023/03/21 08:53:12;;;;;;;21.27;9.02;;;;;;;9.25;100.00;101323.81;4916086;23;20139;-64
2023/03/21 08:55:38;;;;;;;18.52;8.88;;;;;;;9.25;100.00;101318.59;4889324;29;20587;-65
2023/03/21 08:58:03;;;;;;;21.10;9.10;;;;;;;9.26;100.00;101322.13;4888301;29;20111;-64
2023/03/21 09:00:29;;;;;;;21.92;9.85;;;;;;;9.27;100.00;101309.16;4886952;29;20103;-64
2023/03/21 09:02:56;;;;;;;19.42;9.75;;;;;;;9.30;100.00;101313.56;4890993;29;20035;-64
2023/03/21 09:05:22;;;;;;;24.17;9.68;;;;;;;9.32;100.00;101309.31;4889504;29;20031;-64
2023/03/21 09:07:48;;;;;;;21.30;9.43;;;;;;;9.34;100.00;101307.66;4892951;29;20164;-65
2023/03/21 09:10:19;;;;;;;20.45;9.30;;;;;;;9.35;100.00;101306.81;4893840;29;20060;-64
2023/03/21 09:12:44;;;;;;;21.83;9.65;;;;;;;9.36;100.00;101303.41;4891531;29;20028;-64
2023/03/21 09:15:11;;;;;;;21.65;10.05;;;;;;;9.39;100.00;101316.53;4891333;29;20044;-65
2023/03/21 09:17:40;;;;;;;22.98;9.73;;;;;;;9.43;100.00;101308.00;4894319;29;20060;-64
2023/03/21 09:20:10;;;;;;;23.42;10.32;;;;;;;9.45;100.00;101302.84;4892553;29;20092;-65
2023/03/21 09:22:38;;;;;;;23.45;10.00;;;;;;;9.49;100.00;101304.72;4892916;29;20126;-65
2023/03/21 09:25:07;;;;;;;22.27;10.80;;;;;;;9.50;100.00;101301.28;4892002;29;20040;-64
2023/03/21 09:27:32;;;;;;;21.33;9.75;;;;;;;9.50;100.00;101301.28;4892314;29;20032;-64
2023/03/21 09:29:58;;;;;;;20.55;10.48;;;;;;;9.50;100.00;101296.06;4893248;29;20037;-64
2023/03/21 09:32:24;;;;;;;22.50;9.30;;;;;;;9.52;100.00;101295.31;4891099;29;20024;-63
2023/03/21 09:34:49;;;;;;;18.55;9.25;;;;;;;9.54;100.00;101297.97;4893146;29;20027;-64
2023/03/21 09:37:15;;;;;;;19.60;9.98;;;;;;;9.57;100.00;101298.06;4894262;29;20032;-70
2023/03/21 09:39:41;;;;;;;20.80;9.90;;;;;;;9.61;100.00;101286.94;4894454;29;20027;-71
2023/03/21 09:42:36;;;;;;;22.67;9.13;;;;;;;9.66;100.00;101288.00;4893479;29;20032;-70
2023/03/21 09:45:18;;;;;;;22.40;9.23;;;;;;;9.66;100.00;101287.09;4890251;29;20021;-71
2023/03/21 09:47:52;;;;;;;18.40;9.00;;;;;;;9.68;100.00;101290.66;4892741;29;20119;-70
2023/03/21 09:50:26;;;;;;;19.30;8.88;;;;;;;9.68;100.00;101288.03;4892837;29;20092;-71
2023/03/21 09:53:00;;;;;;;16.58;8.35;;;;;;;9.71;100.00;101280.34;4899308;29;20474;-71
2023/03/21 09:55:33;;;;;;;23.25;9.13;;;;;;;9.75;100.00;101280.50;4910285;29;20031;-71
2023/03/21 09:58:11;;;;;;;21.45;8.88;;;;;;;9.79;100.00;101272.78;4909148;29;20024;-71
2023/03/21 10:00:42;;;;;;;21.88;8.57;;;;;;;9.85;100.00;101268.69;4912457;29;20032;-71
2023/03/21 10:03:24;;;;;;;18.88;8.95;;;;;;;9.89;100.00;101270.56;4911358;29;20040;-70
2023/03/21 10:05:57;;;;;;;17.60;8.57;;;;;;;9.95;100.00;101263.75;4911207;29;20055;-70
2023/03/21 10:08:33;;;;;;;18.45;8.65;;;;;;;9.98;100.00;101263.84;4908780;29;20020;-70
2023/03/21 10:11:09;;;;;;;25.08;9.20;;;;;;;10.03;99.79;101255.38;4910381;29;20488;-70
2023/03/21 10:13:45;;;;;;;17.05;8.32;;;;;;;10.09;100.00;101258.19;4893077;29;20044;-70
2023/03/21 10:16:18;;;;;;;19.98;8.93;;;;;;;10.14;100.00;101255.72;4909135;29;20075;-71
2023/03/21 10:18:45;;;;;;;20.70;8.68;;;;;;;10.17;99.64;101252.34;4909625;29;20024;-71
2023/03/21 10:21:18;;;;;;;18.08;8.43;;;;;;;10.20;98.82;101244.63;4909358;29;20095;-71
2023/03/21 10:23:44;;;;;;;17.38;8.07;;;;;;;10.25;99.18;101254.34;4911734;29;20028;-71
2023/03/21 10:26:10;;;;;;;18.13;7.65;;;;;;;10.31;100.00;101248.47;4912024;29;20035;-65
2023/03/21 10:28:39;;;;;;;16.33;8.02;;;;;;;10.39;98.67;101246.13;4910538;29;20041;-65
2023/03/21 10:31:08;;;;;;;21.38;8.45;;;;;;;10.48;98.53;101248.13;4900446;29;20039;-65
2023/03/21 10:33:37;;;;;;;18.77;8.07;;;;;;;10.56;97.37;101241.44;4912420;29;20028;-65
2023/03/21 10:36:24;;;;;;;17.48;7.97;;;;;;;10.64;96.67;101249.47;4901684;29;20038;-64
2023/03/21 10:38:54;;;;;;;14.85;7.20;;;;;;;10.68;96.09;101243.50;4911403;29;20024;-65
2023/03/21 10:41:20;;;;;;;17.75;7.80;;;;;;;10.73;95.46;101236.69;4910272;29;20024;-64
2023/03/21 10:43:50;;;;;;;16.23;7.88;;;;;;;10.81;96.05;101240.41;4910475;29;20356;-65
2023/03/21 10:46:20;;;;;;;20.92;8.55;;;;;;;10.89;95.44;101245.84;4911811;29;20034;-65
2023/03/21 10:48:51;;;;;;;19.75;8.05;;;;;;;10.95;94.97;101243.44;4911017;29;20492;-65
2023/03/21 10:51:24;;;;;;;18.77;7.75;;;;;;;11.01;93.02;101253.13;4900883;29;20043;-65
2023/03/21 10:53:56;;;;;;;19.95;8.45;;;;;;;11.04;93.48;101245.41;4910147;29;20055;-65
2023/03/21 10:56:26;;;;;;;16.70;7.75;;;;;;;11.07;93.10;101253.31;4910611;29;20044;-65
2023/03/21 10:58:54;;;;;;;18.50;8.50;;;;;;;11.13;92.79;101245.66;4908184;29;20468;-65
2023/03/21 11:01:49;;;;;;;17.70;7.50;;;;;;;11.19;91.57;101243.22;4910808;29;20039;-65
2023/03/21 11:04:26;;;;;;;20.67;8.18;;;;;;;11.27;92.32;101240.81;4908063;29;20137;-65
2023/03/21 11:06:55;;;;;;;17.20;7.82;;;;;;;11.37;91.28;101231.50;4911141;29;20039;-65
2023/03/21 11:09:24;;;;;;;23.08;8.45;;;;;;;11.46;90.82;101231.75;4910785;29;20500;-65
2023/03/21 11:12:08;;;;;;;19.63;8.30;;;;;;;11.51;88.42;101237.97;4911408;29;20484;-65
2023/03/21 11:14:40;;;;;;;17.92;8.05;;;;;;;11.53;88.09;101231.06;4898980;29;20063;-65
2023/03/21 11:17:18;;;;;;;21.15;8.15;;;;;;;11.56;88.87;101238.97;4911410;29;20403;-65
2023/03/21 11:19:59;;;;;;;16.63;7.57;;;;;;;11.60;87.75;101230.41;4911446;29;20051;-65
2023/03/21 11:22:29;;;;;;;19.05;8.23;;;;;;;11.64;88.67;101232.25;4911091;29;20436;-65
2023/03/21 11:25:07;;;;;;;17.90;8.30;;;;;;;11.67;86.01;101241.84;4906376;29;20044;-65
2023/03/21 11:27:33;;;;;;;17.83;8.25;;;;;;;11.69;85.70;101239.28;4907883;29;20040;-65
2023/03/21 11:30:00;;;;;;;15.85;7.53;;;;;;;11.70;85.51;101235.84;4898004;29;20403;-65
2023/03/21 11:32:34;;;;;;;18.50;7.70;;;;;;;11.73;86.74;101230.69;4909738;29;20119;-65
2023/03/21 11:35:15;;;;;;;15.70;7.38;;;;;;;11.79;86.38;101230.88;4907757;29;20036;-65